Panagia — V2OQ5 — position and weather

sailwx.info

Track history (hours):
 
Tides and Currents Weather Stations Pressure Air Temp Water Temp Dewpoint Dewpoint Depression Visibility Wind Speed Wind Dir Waves Ship Positions

Panagia

Last reported at 2015-Jan-27 16:05 UTC. Time now 2015-Jan-30 07:56 UTC.
Position N 36°39' E 013°50'.

Length 120 m; draft 7.3 m.

Type: Cargo ship. MMSI: 304610000.

Date/timePositionNaut miles runAvg speedWind from/ knotsBaromVisibWave heightAir tempDewpointWater temp
2015-Jan-27 16:05N 36°39' E 013°50'  
2015-Jan-24 18:24N 35°60' W 005°12'1415.9
2015-Jan-24 17:33N 35°57' W 005°29'  
2015-Jan-20 14:21N 50°31' E 000°07'1112.5
2015-Jan-20 13:28N 50°34' E 000°24'1112.0
2015-Jan-20 12:33N 50°38' E 000°40'1110.8
2015-Jan-20 11:33N 50°44' E 000°54'20 9.9
2015-Jan-20 09:33N 50°56' E 001°19'1212.0
2015-Jan-20 08:34N 51°04' E 001°32'1414.2
2015-Jan-20 07:33N 51°15' E 001°48'1313.2
2015-Jan-20 06:34N 51°24' E 002°02'1312.1
2015-Jan-20 05:27N 51°22' E 002°23'1212.6
2015-Jan-20 04:31N 51°22' E 002°42'1313.8
2015-Jan-20 03:33N 51°25' E 003°03'1514.6
2015-Jan-20 02:34N 51°25' E 003°27'1010.1
2015-Jan-20 01:33N 51°23' E 003°43'9 9.6
2015-Jan-20 00:34N 51°25' E 003°58'8 8.3
2015-Jan-19 23:33N 51°24' E 004°11'4 4.3
2015-Jan-19 22:33N 51°21' E 004°16'0 0.0
2015-Jan-19 21:33N 51°21' E 004°16'0 0.0
2015-Jan-19 20:31N 51°21' E 004°16'0 0.0
2015-Jan-19 19:28N 51°21' E 004°16'0 0.0
2015-Jan-19 13:34N 51°21' E 004°16'0 0.0
2015-Jan-19 12:26N 51°21' E 004°16'0 0.0
2015-Jan-19 11:33N 51°21' E 004°16'0 0.0
2015-Jan-19 10:21N 51°21' E 004°16'2 2.1
2015-Jan-19 09:33N 51°22' E 004°14'1010.3
2015-Jan-19 08:33N 51°24' E 003°57'1211.5
2015-Jan-19 07:33N 51°26' E 003°39'1313.1
2015-Jan-19 06:33N 51°24' E 003°19'1313.0
2015-Jan-19 05:33N 51°23' E 002°58'1313.4
2015-Jan-19 04:33N 51°22' E 002°36'1713.7
2015-Jan-19 03:20N 51°16' E 002°11'1215.1
2015-Jan-19 02:31N 51°10' E 001°54'1414.9
2015-Jan-19 01:33N 50°60' E 001°38'  
Track history (hours):
 
Tides and Currents Weather Stations Pressure Air Temp Water Temp Dewpoint Dewpoint Depression Visibility Wind Speed Wind Dir Waves Ship Positions

Panagia

Last reported at 2015-Jan-27 16:05 UTC. Time now 2015-Jan-30 07:56 UTC.
Position N 36°39' E 013°50'.

Length 120 m; draft 7.3 m.

Type: Cargo ship. MMSI: 304610000.

Date/timePositionNaut miles runAvg speedWind from/ knotsBaromVisibWave heightAir tempDewpointWater temp
2015-Jan-27 16:05N 36°39' E 013°50'  
2015-Jan-24 18:24N 35°60' W 005°12'1415.9
2015-Jan-24 17:33N 35°57' W 005°29'  
2015-Jan-20 14:21N 50°31' E 000°07'1112.5
2015-Jan-20 13:28N 50°34' E 000°24'1112.0
2015-Jan-20 12:33N 50°38' E 000°40'1110.8
2015-Jan-20 11:33N 50°44' E 000°54'20 9.9
2015-Jan-20 09:33N 50°56' E 001°19'1212.0
2015-Jan-20 08:34N 51°04' E 001°32'1414.2
2015-Jan-20 07:33N 51°15' E 001°48'1313.2
2015-Jan-20 06:34N 51°24' E 002°02'1312.1
2015-Jan-20 05:27N 51°22' E 002°23'1212.6
2015-Jan-20 04:31N 51°22' E 002°42'1313.8
2015-Jan-20 03:33N 51°25' E 003°03'1514.6
2015-Jan-20 02:34N 51°25' E 003°27'1010.1
2015-Jan-20 01:33N 51°23' E 003°43'9 9.6
2015-Jan-20 00:34N 51°25' E 003°58'8 8.3
2015-Jan-19 23:33N 51°24' E 004°11'4 4.3
2015-Jan-19 22:33N 51°21' E 004°16'0 0.0
2015-Jan-19 21:33N 51°21' E 004°16'0 0.0
2015-Jan-19 20:31N 51°21' E 004°16'0 0.0
2015-Jan-19 19:28N 51°21' E 004°16'0 0.0
2015-Jan-19 13:34N 51°21' E 004°16'0 0.0
2015-Jan-19 12:26N 51°21' E 004°16'0 0.0
2015-Jan-19 11:33N 51°21' E 004°16'0 0.0
2015-Jan-19 10:21N 51°21' E 004°16'2 2.1
2015-Jan-19 09:33N 51°22' E 004°14'1010.3
2015-Jan-19 08:33N 51°24' E 003°57'1211.5
2015-Jan-19 07:33N 51°26' E 003°39'1313.1
2015-Jan-19 06:33N 51°24' E 003°19'1313.0
2015-Jan-19 05:33N 51°23' E 002°58'1313.4
2015-Jan-19 04:33N 51°22' E 002°36'1713.7
2015-Jan-19 03:20N 51°16' E 002°11'1215.1
2015-Jan-19 02:31N 51°10' E 001°54'1414.9
2015-Jan-19 01:33N 50°60' E 001°38'  

Dump ship's entire track history